createdAt,value
2023-04-17T00:00:35.606Z,9.92
2023-04-17T00:01:35.589Z,9.82
2023-04-17T00:02:35.789Z,9.82
2023-04-17T00:03:35.821Z,9.80
2023-04-17T00:04:35.801Z,9.82
2023-04-17T00:05:35.640Z,9.84
2023-04-17T00:06:35.585Z,9.69
2023-04-17T00:07:35.573Z,9.80
2023-04-17T00:08:35.574Z,9.73
2023-04-17T00:09:35.645Z,9.77
2023-04-17T00:10:35.606Z,9.79
2023-04-17T00:11:35.554Z,9.74
2023-04-17T00:12:35.559Z,9.76
2023-04-17T00:13:35.556Z,9.76
2023-04-17T00:14:35.536Z,9.73
2023-04-17T00:15:35.627Z,9.80
2023-04-17T00:16:35.563Z,9.72
2023-04-17T00:17:35.522Z,9.72
2023-04-17T00:18:35.515Z,9.68
2023-04-17T00:19:35.556Z,9.64
2023-04-17T00:20:35.584Z,9.72
2023-04-17T00:21:35.504Z,9.68
2023-04-17T00:22:35.524Z,9.64
2023-04-17T00:23:35.519Z,9.66
2023-04-17T00:24:35.540Z,9.68
2023-04-17T00:25:35.578Z,9.59
2023-04-17T00:26:35.523Z,9.62
2023-04-17T00:27:35.510Z,9.59
2023-04-17T00:28:35.534Z,9.62
2023-04-17T00:29:35.509Z,9.61
2023-04-17T00:30:35.593Z,9.59
2023-04-17T00:31:35.600Z,9.59
2023-04-17T00:32:35.897Z,9.56
2023-04-17T00:33:35.522Z,9.65
2023-04-17T00:34:35.547Z,9.61
2023-04-17T00:35:35.565Z,9.48
2023-04-17T00:36:35.599Z,9.55
2023-04-17T00:37:35.538Z,9.54
2023-04-17T00:38:35.536Z,9.51
2023-04-17T00:39:35.525Z,9.58
2023-04-17T00:40:35.547Z,9.51
2023-04-17T00:41:35.662Z,9.55
2023-04-17T00:42:35.619Z,9.56
2023-04-17T00:43:35.556Z,9.59
2023-04-17T00:44:35.560Z,9.51
2023-04-17T00:45:35.655Z,9.43
2023-04-17T00:46:35.620Z,9.47
2023-04-17T00:47:35.602Z,9.58
2023-04-17T00:48:35.607Z,9.46
2023-04-17T00:49:35.535Z,9.43
2023-04-17T00:50:35.565Z,9.41
2023-04-17T00:51:35.610Z,9.46
2023-04-17T00:52:35.616Z,9.43
2023-04-17T00:53:35.529Z,9.41
2023-04-17T00:54:35.553Z,9.39
2023-04-17T00:55:35.536Z,9.39
2023-04-17T00:56:35.527Z,9.39
2023-04-17T00:57:35.533Z,9.46
2023-04-17T00:58:35.594Z,9.41
2023-04-17T00:59:35.581Z,9.46
2023-04-17T01:00:35.534Z,9.43
2023-04-17T01:01:35.596Z,9.39
2023-04-17T01:02:35.622Z,9.43
2023-04-17T01:03:35.793Z,9.44
2023-04-17T01:04:35.563Z,9.44
2023-04-17T01:05:35.621Z,9.41
2023-04-17T01:06:35.562Z,9.44
2023-04-17T01:07:35.535Z,9.39
2023-04-17T01:08:35.628Z,9.43
2023-04-17T01:09:35.541Z,9.39
2023-04-17T01:10:35.605Z,9.40
2023-04-17T01:11:35.545Z,9.39
2023-04-17T01:12:35.559Z,9.34
2023-04-17T01:13:35.553Z,9.39
2023-04-17T01:14:35.555Z,9.40
2023-04-17T01:15:35.615Z,9.36
2023-04-17T01:16:35.681Z,9.34
2023-04-17T01:17:35.571Z,9.32
2023-04-17T01:18:35.565Z,9.34
2023-04-17T01:19:35.588Z,9.29
2023-04-17T01:20:35.642Z,9.29
2023-04-17T01:21:35.571Z,9.31
2023-04-17T01:22:35.585Z,9.28
2023-04-17T01:23:35.568Z,9.31
2023-04-17T01:24:35.665Z,9.28
2023-04-17T01:25:35.592Z,9.31
2023-04-17T01:26:35.588Z,9.28
2023-04-17T01:27:35.623Z,9.28
2023-04-17T01:28:35.585Z,9.29
2023-04-17T01:29:35.843Z,9.29
2023-04-17T01:30:35.656Z,9.32
2023-04-17T01:31:35.581Z,9.25
2023-04-17T01:32:35.614Z,9.31
2023-04-17T01:33:35.584Z,9.22
2023-04-17T01:34:37.439Z,9.32
2023-04-17T01:35:35.596Z,9.23
2023-04-17T01:36:35.577Z,9.31
2023-04-17T01:37:35.588Z,9.21
2023-04-17T01:38:35.593Z,9.29
2023-04-17T01:39:35.646Z,9.25
2023-04-17T01:40:35.593Z,9.26
2023-04-17T01:41:35.584Z,9.28
2023-04-17T01:42:35.601Z,9.19
2023-04-17T01:43:35.587Z,9.19
2023-04-17T01:44:35.653Z,9.18
2023-04-17T01:45:35.591Z,9.26
2023-04-17T01:46:35.653Z,9.26
2023-04-17T01:47:35.659Z,9.22
2023-04-17T01:48:35.614Z,9.21
2023-04-17T01:49:35.620Z,9.19
2023-04-17T01:50:35.577Z,9.26
2023-04-17T01:51:35.617Z,9.25
2023-04-17T01:52:35.672Z,9.19
2023-04-17T01:53:35.578Z,9.14
2023-04-17T01:54:35.634Z,9.14
2023-04-17T01:55:35.594Z,9.10
2023-04-17T01:56:35.589Z,9.14
2023-04-17T01:57:35.622Z,9.10
2023-04-17T01:58:35.638Z,9.14
2023-04-17T01:59:35.656Z,9.13
2023-04-17T02:00:35.597Z,9.13
2023-04-17T02:01:35.858Z,9.14
2023-04-17T02:02:35.899Z,9.13
2023-04-17T02:03:35.953Z,9.06
2023-04-17T02:04:36.283Z,9.11
2023-04-17T02:05:35.843Z,9.08
2023-04-17T02:06:35.635Z,9.13
2023-04-17T02:07:35.660Z,9.16
2023-04-17T02:08:35.644Z,9.16
2023-04-17T02:09:35.635Z,9.06
2023-04-17T02:10:35.699Z,9.08
2023-04-17T02:11:35.636Z,9.00
2023-04-17T02:12:35.662Z,9.16
2023-04-17T02:13:35.628Z,9.13
2023-04-17T02:14:35.655Z,9.00
2023-04-17T02:15:35.773Z,9.10
2023-04-17T02:16:35.679Z,9.00
2023-04-17T02:17:35.731Z,9.00
2023-04-17T02:18:35.675Z,9.03
2023-04-17T02:19:35.688Z,9.04
2023-04-17T02:20:35.706Z,9.04
2023-04-17T02:21:35.738Z,8.99
2023-04-17T02:22:35.705Z,9.03
2023-04-17T02:23:35.703Z,8.99
2023-04-17T02:24:35.709Z,9.03
2023-04-17T02:25:35.747Z,9.03
2023-04-17T02:26:35.776Z,9.03
2023-04-17T02:27:35.730Z,9.04
2023-04-17T02:28:35.720Z,8.94
2023-04-17T02:29:35.736Z,8.92
2023-04-17T02:30:35.721Z,9.04
2023-04-17T02:31:35.840Z,8.91
2023-04-17T02:32:35.765Z,9.06
2023-04-17T02:33:35.753Z,8.91
2023-04-17T02:34:35.720Z,8.97
2023-04-17T02:35:35.736Z,8.97
2023-04-17T02:36:35.807Z,8.87
2023-04-17T02:37:35.739Z,8.97
2023-04-17T02:38:35.754Z,8.92
2023-04-17T02:39:35.760Z,8.99
2023-04-17T02:40:35.798Z,8.95
2023-04-17T02:41:35.864Z,8.87
2023-04-17T02:42:35.795Z,8.82
2023-04-17T02:43:35.851Z,8.88
2023-04-17T02:44:35.789Z,8.91
2023-04-17T02:45:35.806Z,8.94
2023-04-17T02:46:35.891Z,8.89
2023-04-17T02:47:35.883Z,8.89
2023-04-17T02:48:35.888Z,8.87
2023-04-17T02:49:35.833Z,8.91
2023-04-17T02:50:35.846Z,8.87
2023-04-17T02:51:35.864Z,8.92
2023-04-17T02:52:35.882Z,8.89
2023-04-17T02:53:35.994Z,8.91
2023-04-17T02:54:35.907Z,8.97
2023-04-17T02:55:36.047Z,8.95
2023-04-17T02:56:35.897Z,8.94
2023-04-17T02:57:35.930Z,8.91
2023-04-17T02:58:35.988Z,8.94
2023-04-17T02:59:35.956Z,8.88
2023-04-17T03:00:35.985Z,8.82
2023-04-17T03:01:36.009Z,8.84
2023-04-17T03:02:36.139Z,8.94
2023-04-17T03:03:36.245Z,8.92
2023-04-17T03:04:36.002Z,8.92
2023-04-17T03:05:36.004Z,8.92
2023-04-17T03:06:36.001Z,8.85
2023-04-17T03:07:36.032Z,8.89
2023-04-17T03:08:36.128Z,8.88
2023-04-17T03:09:36.029Z,8.87
2023-04-17T03:10:36.040Z,8.81
2023-04-17T03:11:36.046Z,8.82
2023-04-17T03:12:36.049Z,8.79
2023-04-17T03:13:36.141Z,8.81
2023-04-17T03:14:36.072Z,8.82
2023-04-17T03:15:36.072Z,8.85
2023-04-17T03:16:36.138Z,8.79
2023-04-17T03:17:36.120Z,8.76
2023-04-17T03:18:36.124Z,8.79
2023-04-17T03:19:36.108Z,8.76
2023-04-17T03:20:36.129Z,8.79
2023-04-17T03:21:36.168Z,8.79
2023-04-17T03:22:36.125Z,8.73
2023-04-17T03:23:36.149Z,8.76
2023-04-17T03:24:36.206Z,8.79
2023-04-17T03:25:36.179Z,8.78
2023-04-17T03:26:36.236Z,8.78
2023-04-17T03:27:36.214Z,8.76
2023-04-17T03:28:36.234Z,8.70
2023-04-17T03:29:36.210Z,8.73
2023-04-17T03:30:36.214Z,8.76
2023-04-17T03:31:36.311Z,8.67
2023-04-17T03:32:36.290Z,8.63
2023-04-17T03:33:36.341Z,8.69
2023-04-17T03:34:36.254Z,8.73
2023-04-17T03:35:36.271Z,8.69
2023-04-17T03:36:36.363Z,8.73
2023-04-17T03:37:36.293Z,8.64
2023-04-17T03:38:36.370Z,8.64
2023-04-17T03:39:36.321Z,8.63
2023-04-17T03:40:36.342Z,8.64
2023-04-17T03:41:36.400Z,8.64
2023-04-17T03:42:36.359Z,8.64
2023-04-17T03:43:36.430Z,8.69
2023-04-17T03:44:36.426Z,8.63
2023-04-17T03:45:36.476Z,8.63
2023-04-17T03:46:36.479Z,8.69
2023-04-17T03:47:36.465Z,8.67
2023-04-17T03:48:36.430Z,8.67
2023-04-17T03:49:36.484Z,8.51
2023-04-17T03:50:36.482Z,8.64
2023-04-17T03:51:36.561Z,8.63
2023-04-17T03:52:36.526Z,8.51
2023-04-17T03:53:36.527Z,8.64
2023-04-17T03:54:36.528Z,8.67
2023-04-17T03:55:36.561Z,8.61
2023-04-17T03:56:36.629Z,8.53
2023-04-17T03:57:36.566Z,8.61
2023-04-17T03:58:36.626Z,8.60
2023-04-17T03:59:36.573Z,8.61
2023-04-17T04:00:36.616Z,8.55
2023-04-17T04:01:36.681Z,8.60
2023-04-17T04:02:36.722Z,8.58
2023-04-17T04:03:36.701Z,8.64
2023-04-17T04:04:36.886Z,8.60
2023-04-17T04:05:36.652Z,8.53
2023-04-17T04:06:36.741Z,8.63
2023-04-17T04:07:36.673Z,8.55
2023-04-17T04:08:36.661Z,8.61
2023-04-17T04:09:36.709Z,8.53
2023-04-17T04:10:36.688Z,8.51
2023-04-17T04:11:36.734Z,8.52
2023-04-17T04:12:36.793Z,8.52
2023-04-17T04:13:36.780Z,8.52
2023-04-17T04:14:36.728Z,8.53
2023-04-17T04:15:36.764Z,8.52
2023-04-17T04:16:36.832Z,8.53
2023-04-17T04:17:36.788Z,8.48
2023-04-17T04:18:36.827Z,8.53
2023-04-17T04:19:36.842Z,8.49
2023-04-17T04:20:36.791Z,8.55
2023-04-17T04:21:36.800Z,8.60
2023-04-17T04:22:36.804Z,8.52
2023-04-17T04:23:36.821Z,8.53
2023-04-17T04:24:36.938Z,8.53
2023-04-17T04:25:36.882Z,8.58
2023-04-17T04:26:36.844Z,8.66
2023-04-17T04:27:36.868Z,8.63
2023-04-17T04:28:36.888Z,8.55
2023-04-17T04:29:36.898Z,8.61
2023-04-17T04:30:36.958Z,8.60
2023-04-17T04:31:36.932Z,8.56
2023-04-17T04:32:36.977Z,8.58
2023-04-17T04:33:36.946Z,8.63
2023-04-17T04:34:36.938Z,8.60
2023-04-17T04:35:38.336Z,8.60
2023-04-17T04:36:36.942Z,8.58
2023-04-17T04:37:36.986Z,8.58
2023-04-17T04:38:36.996Z,8.55
2023-04-17T04:39:36.982Z,8.60
2023-04-17T04:40:37.056Z,8.56
2023-04-17T04:41:36.999Z,8.58
2023-04-17T04:42:36.976Z,8.61
2023-04-17T04:43:37.025Z,8.63
2023-04-17T04:44:37.060Z,8.58
2023-04-17T04:45:37.066Z,8.56
2023-04-17T04:46:37.020Z,8.56
2023-04-17T04:47:37.123Z,8.55
2023-04-17T04:48:37.033Z,8.63
2023-04-17T04:49:37.036Z,8.61
2023-04-17T04:50:37.091Z,8.53
2023-04-17T04:51:37.039Z,8.56
2023-04-17T04:52:37.045Z,8.66
2023-04-17T04:53:37.033Z,8.58
2023-04-17T04:54:37.055Z,8.55
2023-04-17T04:55:37.131Z,8.56
2023-04-17T04:56:37.113Z,8.61
2023-04-17T04:57:37.065Z,8.66
2023-04-17T04:58:37.092Z,8.60
2023-04-17T04:59:38.954Z,8.56
2023-04-17T05:00:37.145Z,8.60
2023-04-17T05:01:37.244Z,8.60
2023-04-17T05:02:37.354Z,8.48
2023-04-17T05:03:37.322Z,8.45
2023-04-17T05:04:37.201Z,8.45
2023-04-17T05:05:37.161Z,8.52
2023-04-17T05:06:37.142Z,8.44
2023-04-17T05:07:37.121Z,8.46
2023-04-17T05:08:37.105Z,8.51
2023-04-17T05:09:37.236Z,8.55
2023-04-17T05:10:37.227Z,8.46
2023-04-17T05:11:37.298Z,8.48
2023-04-17T05:12:37.225Z,8.56
2023-04-17T05:13:37.152Z,8.46
2023-04-17T05:14:37.198Z,8.44
2023-04-17T05:15:37.311Z,8.51
2023-04-17T05:16:37.242Z,8.58
2023-04-17T05:17:37.306Z,8.52
2023-04-17T05:18:37.293Z,8.55
2023-04-17T05:19:37.262Z,8.45
2023-04-17T05:20:37.245Z,8.48
2023-04-17T05:21:37.235Z,8.51
2023-04-17T05:22:37.249Z,8.45
2023-04-17T05:23:37.318Z,8.45
2023-04-17T05:24:37.249Z,8.48
2023-04-17T05:25:37.253Z,8.46
2023-04-17T05:26:37.254Z,8.48
2023-04-17T05:27:37.264Z,8.48
2023-04-17T05:28:38.328Z,8.44
2023-04-17T05:29:37.302Z,8.53
2023-04-17T05:30:37.296Z,8.55
2023-04-17T05:31:37.422Z,8.49
2023-04-17T05:32:37.385Z,8.55
2023-04-17T05:33:37.380Z,8.55
2023-04-17T05:34:37.316Z,8.52
2023-04-17T05:35:37.289Z,8.55
2023-04-17T05:36:37.342Z,8.58
2023-04-17T05:37:37.309Z,8.60
2023-04-17T05:38:37.422Z,8.56
2023-04-17T05:39:37.301Z,8.61
2023-04-17T05:40:37.356Z,8.51
2023-04-17T05:41:37.354Z,8.51
2023-04-17T05:42:37.354Z,8.55
2023-04-17T05:43:37.433Z,8.52
2023-04-17T05:44:37.364Z,8.63
2023-04-17T05:45:37.402Z,8.63
2023-04-17T05:46:37.378Z,8.60
2023-04-17T05:47:37.409Z,8.63
2023-04-17T05:48:37.416Z,8.60
2023-04-17T05:49:37.454Z,8.66
2023-04-17T05:50:37.414Z,8.66
2023-04-17T05:51:37.426Z,8.61
2023-04-17T05:52:39.486Z,8.63
2023-04-17T05:53:37.409Z,8.56
2023-04-17T05:54:37.580Z,8.64
2023-04-17T05:55:37.509Z,8.53
2023-04-17T05:56:37.459Z,8.51
2023-04-17T05:57:37.516Z,8.61
2023-04-17T05:58:37.479Z,8.64
2023-04-17T05:59:37.572Z,8.63
2023-04-17T06:00:37.493Z,8.61
2023-04-17T06:01:37.502Z,8.70
2023-04-17T06:02:37.745Z,8.64
2023-04-17T06:03:37.840Z,8.66
2023-04-17T06:04:37.770Z,8.64
2023-04-17T06:05:37.596Z,8.71
2023-04-17T06:06:37.553Z,8.66
2023-04-17T06:07:37.551Z,8.66
2023-04-17T06:08:37.530Z,8.71
2023-04-17T06:09:37.607Z,8.70
2023-04-17T06:10:37.549Z,8.71
2023-04-17T06:11:37.552Z,8.69
2023-04-17T06:12:37.541Z,8.70
2023-04-17T06:13:37.537Z,8.76
2023-04-17T06:14:37.554Z,8.76
2023-04-17T06:15:37.886Z,8.78
2023-04-17T06:16:37.615Z,8.79
2023-04-17T06:17:37.751Z,8.73
2023-04-17T06:18:37.564Z,8.82
2023-04-17T06:19:37.584Z,8.87
2023-04-17T06:20:39.988Z,8.79
2023-04-17T06:21:37.551Z,8.85
2023-04-17T06:22:37.613Z,8.85
2023-04-17T06:23:37.555Z,8.92
2023-04-17T06:24:37.562Z,8.84
2023-04-17T06:25:37.601Z,8.91
2023-04-17T06:26:37.542Z,8.88
2023-04-17T06:27:37.664Z,8.81
2023-04-17T06:28:37.549Z,8.85
2023-04-17T06:29:37.857Z,8.91
2023-04-17T06:30:37.614Z,8.95
2023-04-17T06:31:37.638Z,8.95
2023-04-17T06:32:37.643Z,8.97
2023-04-17T06:33:37.549Z,8.91
2023-04-17T06:34:46.118Z,8.95
2023-04-17T06:35:38.543Z,8.95
2023-04-17T06:36:37.542Z,8.97
2023-04-17T06:37:37.570Z,9.06
2023-04-17T06:38:37.581Z,9.03
2023-04-17T06:39:37.529Z,9.00
2023-04-17T06:40:37.526Z,9.03
2023-04-17T06:41:37.539Z,9.04
2023-04-17T06:42:37.528Z,9.13
2023-04-17T06:43:37.570Z,9.18
2023-04-17T06:44:37.506Z,9.08
2023-04-17T06:45:37.522Z,9.16
2023-04-17T06:46:37.563Z,9.13
2023-04-17T06:47:37.539Z,9.08
2023-04-17T06:48:37.560Z,9.11
2023-04-17T06:49:37.494Z,9.16
2023-04-17T06:50:37.480Z,9.22
2023-04-17T06:51:37.469Z,9.21
2023-04-17T06:52:37.488Z,9.25
2023-04-17T06:53:37.535Z,9.34
2023-04-17T06:54:37.572Z,9.32
2023-04-17T06:55:37.466Z,9.29
2023-04-17T06:56:37.455Z,9.25
2023-04-17T06:57:37.481Z,9.19
2023-04-17T06:58:37.470Z,9.26
2023-04-17T06:59:37.518Z,9.26
2023-04-17T07:00:37.451Z,9.34
2023-04-17T07:01:37.484Z,9.34
2023-04-17T07:02:37.548Z,9.41
2023-04-17T07:03:37.580Z,9.41
2023-04-17T07:04:37.542Z,9.39
2023-04-17T07:05:37.429Z,9.43
2023-04-17T07:06:37.427Z,9.40
2023-04-17T07:07:37.416Z,9.51
2023-04-17T07:08:37.440Z,9.46
2023-04-17T07:09:37.463Z,9.44
2023-04-17T07:10:37.393Z,9.47
2023-04-17T07:11:37.453Z,9.48
2023-04-17T07:12:37.392Z,9.56
2023-04-17T07:13:37.360Z,9.54
2023-04-17T07:14:37.394Z,9.59
2023-04-17T07:15:37.406Z,9.54
2023-04-17T07:16:37.446Z,9.65
2023-04-17T07:17:37.362Z,9.62
2023-04-17T07:18:37.313Z,9.65
2023-04-17T07:19:37.290Z,9.65
2023-04-17T07:20:37.349Z,9.77
2023-04-17T07:21:37.274Z,9.79
2023-04-17T07:22:37.297Z,9.80
2023-04-17T07:23:37.243Z,9.86
2023-04-17T07:24:37.234Z,9.82
2023-04-17T07:25:37.285Z,9.87
2023-04-17T07:26:37.181Z,9.84
2023-04-17T07:27:37.194Z,9.89
2023-04-17T07:28:37.164Z,9.91
2023-04-17T07:29:37.157Z,9.92
2023-04-17T07:30:37.197Z,9.89
2023-04-17T07:31:37.167Z,9.95
2023-04-17T07:32:37.124Z,9.92
2023-04-17T07:33:40.037Z,9.95
2023-04-17T07:34:37.055Z,9.97
2023-04-17T07:35:37.316Z,9.99
2023-04-17T07:36:37.095Z,10.05
2023-04-17T07:37:37.076Z,9.99
2023-04-17T07:38:38.627Z,9.99
2023-04-17T07:39:37.038Z,9.94
2023-04-17T07:40:37.171Z,10.09
2023-04-17T07:41:36.956Z,10.12
2023-04-17T07:42:36.952Z,10.10
2023-04-17T07:43:37.081Z,10.13
2023-04-17T07:44:36.925Z,10.20
2023-04-17T07:45:38.099Z,10.19
2023-04-17T07:46:37.005Z,10.23
2023-04-17T07:47:36.951Z,10.23
2023-04-17T07:48:36.945Z,10.26
2023-04-17T07:49:36.840Z,10.35
2023-04-17T07:50:36.831Z,10.25
2023-04-17T07:51:36.872Z,10.28
2023-04-17T07:52:36.802Z,10.34
2023-04-17T07:53:36.794Z,10.40
2023-04-17T07:54:36.781Z,10.34
2023-04-17T07:55:36.772Z,10.42
2023-04-17T07:56:36.827Z,10.41
2023-04-17T07:57:36.736Z,10.44
2023-04-17T07:58:36.709Z,10.48
2023-04-17T07:59:36.719Z,10.56
2023-04-17T08:00:36.692Z,10.54
2023-04-17T08:01:36.727Z,10.57
2023-04-17T08:02:36.789Z,10.61
2023-04-17T08:03:36.971Z,10.63
2023-04-17T08:04:36.761Z,10.53
2023-04-17T08:05:36.612Z,10.56
2023-04-17T08:06:36.620Z,10.67
2023-04-17T08:07:36.567Z,10.63
2023-04-17T08:08:36.530Z,10.67
2023-04-17T08:09:36.551Z,10.75
2023-04-17T08:10:36.498Z,10.78
2023-04-17T08:11:46.041Z,10.78
2023-04-17T08:12:37.489Z,10.71
2023-04-17T08:13:36.519Z,10.74
2023-04-17T08:14:36.464Z,10.78
2023-04-17T08:15:37.973Z,10.81
2023-04-17T08:16:36.707Z,10.78
2023-04-17T08:17:36.366Z,10.78
2023-04-17T08:18:36.307Z,10.90
2023-04-17T08:19:36.356Z,10.96
2023-04-17T08:20:36.277Z,10.96
2023-04-17T08:21:36.266Z,10.93
2023-04-17T08:22:36.227Z,10.94
2023-04-17T08:23:36.208Z,11.00
2023-04-17T08:24:36.294Z,11.11
2023-04-17T08:25:36.157Z,11.18
2023-04-17T08:26:36.122Z,11.19
2023-04-17T08:27:36.121Z,11.26
2023-04-17T08:28:36.111Z,11.29
2023-04-17T08:29:36.115Z,11.26
2023-04-17T08:30:36.081Z,11.22
2023-04-17T08:31:36.068Z,11.26
2023-04-17T08:32:36.035Z,11.40
2023-04-17T08:33:35.992Z,11.32
2023-04-17T08:34:35.991Z,11.29
2023-04-17T08:35:36.175Z,11.36
2023-04-17T08:36:35.892Z,11.35
2023-04-17T08:37:35.918Z,11.41
2023-04-17T08:38:35.857Z,11.36
2023-04-17T08:39:35.902Z,11.43
2023-04-17T08:40:35.800Z,11.36
2023-04-17T08:41:35.772Z,11.41
2023-04-17T08:42:35.724Z,11.57
2023-04-17T08:43:35.779Z,11.54
2023-04-17T08:44:35.678Z,11.54
2023-04-17T08:45:35.707Z,11.55
2023-04-17T08:46:35.721Z,11.59
2023-04-17T08:47:35.848Z,11.69
2023-04-17T08:48:35.562Z,11.65
2023-04-17T08:49:35.548Z,11.70
2023-04-17T08:50:35.654Z,11.70
2023-04-17T08:51:35.470Z,11.77
2023-04-17T08:52:35.449Z,11.77
2023-04-17T08:53:35.379Z,11.63
2023-04-17T08:54:35.349Z,11.68
2023-04-17T08:55:35.322Z,11.68
2023-04-17T08:56:35.280Z,11.65
2023-04-17T08:57:35.470Z,11.73
2023-04-17T08:58:35.205Z,11.88
2023-04-17T08:59:35.210Z,11.91
2023-04-17T09:00:35.324Z,11.88
2023-04-17T09:01:35.233Z,11.87
2023-04-17T09:02:35.342Z,11.84
2023-04-17T09:03:35.176Z,11.91
2023-04-17T09:04:35.248Z,11.91
2023-04-17T09:05:34.990Z,11.88
2023-04-17T09:06:34.963Z,11.94
2023-04-17T09:07:34.989Z,11.83
2023-04-17T09:08:34.913Z,11.91
2023-04-17T09:09:34.893Z,11.94
2023-04-17T09:10:34.852Z,11.88
2023-04-17T09:11:34.871Z,11.90
2023-04-17T09:12:34.808Z,12.02
2023-04-17T09:13:34.778Z,12.06
2023-04-17T09:14:34.800Z,11.99
2023-04-17T09:15:34.783Z,11.95
2023-04-17T09:16:34.770Z,12.00
2023-04-17T09:17:34.809Z,12.02
2023-04-17T09:18:34.708Z,12.00
2023-04-17T09:19:35.172Z,11.87
2023-04-17T09:20:34.578Z,11.90
2023-04-17T09:21:34.564Z,11.90
2023-04-17T09:22:34.521Z,11.91
2023-04-17T09:23:34.553Z,11.90
2023-04-17T09:24:34.466Z,11.88
2023-04-17T09:25:34.428Z,11.90
2023-04-17T09:26:34.398Z,11.88
2023-04-17T09:27:34.377Z,11.83
2023-04-17T09:28:34.385Z,11.86
2023-04-17T09:29:34.299Z,11.88
2023-04-17T09:30:34.267Z,11.86
2023-04-17T09:31:34.419Z,11.87
2023-04-17T09:32:34.375Z,11.94
2023-04-17T09:33:34.173Z,11.88
2023-04-17T09:34:34.200Z,11.95
2023-04-17T09:35:34.978Z,11.94
2023-04-17T09:36:34.291Z,11.94
2023-04-17T09:37:34.066Z,11.90
2023-04-17T09:38:34.092Z,11.86
2023-04-17T09:39:33.989Z,11.88
2023-04-17T09:40:33.974Z,11.87
2023-04-17T09:41:33.935Z,11.86
2023-04-17T09:42:33.892Z,11.97
2023-04-17T09:43:33.855Z,11.97
2023-04-17T09:44:33.925Z,11.95
2023-04-17T09:45:33.789Z,12.03
2023-04-17T09:46:33.793Z,12.09
2023-04-17T09:47:33.834Z,11.99
2023-04-17T09:48:33.729Z,11.94
2023-04-17T09:49:33.721Z,12.00
2023-04-17T09:50:33.812Z,12.10
2023-04-17T09:51:33.618Z,12.02
2023-04-17T09:52:33.628Z,11.97
2023-04-17T09:53:33.540Z,11.97
2023-04-17T09:54:33.588Z,12.12
2023-04-17T09:55:33.480Z,12.09
2023-04-17T09:56:33.460Z,12.13
2023-04-17T09:57:33.448Z,12.24
2023-04-17T09:58:33.357Z,12.18
2023-04-17T09:59:33.394Z,12.25
2023-04-17T10:00:33.312Z,12.29
2023-04-17T10:01:33.247Z,12.37
2023-04-17T10:02:33.458Z,12.37
2023-04-17T10:03:35.936Z,12.46
2023-04-17T10:04:33.283Z,12.58
2023-04-17T10:05:33.182Z,12.53
2023-04-17T10:06:33.050Z,12.65
2023-04-17T10:07:33.050Z,12.58
2023-04-17T10:08:32.980Z,12.60
2023-04-17T10:09:32.930Z,12.67
2023-04-17T10:10:32.940Z,12.73
2023-04-17T10:11:32.875Z,12.76
2023-04-17T10:12:34.750Z,12.78
2023-04-17T10:13:32.786Z,12.87
2023-04-17T10:14:32.842Z,12.87
2023-04-17T10:15:32.706Z,12.79
2023-04-17T10:16:32.700Z,12.91
2023-04-17T10:17:32.729Z,12.85
2023-04-17T10:18:32.592Z,12.90
2023-04-17T10:19:32.557Z,13.01
2023-04-17T10:20:32.530Z,13.00
2023-04-17T10:21:32.517Z,13.05
2023-04-17T10:22:32.414Z,13.13
2023-04-17T10:23:32.384Z,13.23
2023-04-17T10:24:32.332Z,13.35
2023-04-17T10:25:32.276Z,13.35
2023-04-17T10:26:32.266Z,13.38
2023-04-17T10:27:32.233Z,13.38
2023-04-17T10:28:32.108Z,13.41
2023-04-17T10:29:32.080Z,13.46
2023-04-17T10:30:32.014Z,13.47
2023-04-17T10:31:31.999Z,13.54
2023-04-17T10:32:32.151Z,13.52
2023-04-17T10:33:31.849Z,13.57
2023-04-17T10:34:31.800Z,13.67
2023-04-17T10:35:31.813Z,13.70
2023-04-17T10:36:31.700Z,13.83
2023-04-17T10:37:31.711Z,13.72
2023-04-17T10:38:31.576Z,13.72
2023-04-17T10:39:31.518Z,13.83
2023-04-17T10:40:31.520Z,13.86
2023-04-17T10:41:31.417Z,13.81
2023-04-17T10:42:31.346Z,13.96
2023-04-17T10:43:31.358Z,14.03
2023-04-17T10:44:31.297Z,14.10
2023-04-17T10:45:31.212Z,14.20
2023-04-17T10:46:31.280Z,14.14
2023-04-17T10:47:31.059Z,14.28
2023-04-17T10:48:32.028Z,14.26
2023-04-17T10:49:31.179Z,14.30
2023-04-17T10:50:30.872Z,14.29
2023-04-17T10:51:30.793Z,14.33
2023-04-17T10:52:30.880Z,14.37
2023-04-17T10:53:30.683Z,14.47
2023-04-17T10:54:30.669Z,14.37
2023-04-17T10:55:30.547Z,14.32
2023-04-17T10:56:30.511Z,14.40
2023-04-17T10:57:30.416Z,14.45
2023-04-17T10:58:31.441Z,14.43
2023-04-17T10:59:30.362Z,14.47
2023-04-17T11:00:30.281Z,14.55
2023-04-17T11:01:30.218Z,14.37
2023-04-17T11:02:30.184Z,14.37
2023-04-17T11:03:30.130Z,14.41
2023-04-17T11:04:30.078Z,14.32
2023-04-17T11:05:30.023Z,14.30
2023-04-17T11:06:29.868Z,14.25
2023-04-17T11:07:29.779Z,14.25
2023-04-17T11:08:29.746Z,14.11
2023-04-17T11:09:29.702Z,14.17
2023-04-17T11:10:29.703Z,14.14
2023-04-17T11:11:43.524Z,14.00
2023-04-17T11:12:30.486Z,14.05
2023-04-17T11:13:29.419Z,13.90
2023-04-17T11:14:29.456Z,13.90
2023-04-17T11:15:29.314Z,13.95
2023-04-17T11:16:29.367Z,14.05
2023-04-17T11:17:30.266Z,14.05
2023-04-17T11:18:29.146Z,14.00
2023-04-17T11:19:29.112Z,14.12
2023-04-17T11:20:29.153Z,14.12
2023-04-17T11:21:29.053Z,14.10
2023-04-17T11:22:28.911Z,14.07
2023-04-17T11:23:28.884Z,14.18
2023-04-17T11:24:28.822Z,14.30
2023-04-17T11:25:28.752Z,14.33
2023-04-17T11:26:28.805Z,14.41
2023-04-17T11:27:28.608Z,14.58
2023-04-17T11:28:28.590Z,14.65
2023-04-17T11:29:28.478Z,14.70
2023-04-17T11:30:28.419Z,14.66
2023-04-17T11:31:28.496Z,14.73
2023-04-17T11:32:28.324Z,14.73
2023-04-17T11:33:28.239Z,14.65
2023-04-17T11:34:28.215Z,14.78
2023-04-17T11:35:28.104Z,14.70
2023-04-17T11:36:28.105Z,14.68
2023-04-17T11:37:28.043Z,14.77
2023-04-17T11:38:27.966Z,14.63
2023-04-17T11:39:27.892Z,14.68
2023-04-17T11:40:27.818Z,14.85
2023-04-17T11:41:27.786Z,14.81
2023-04-17T11:42:27.691Z,14.84
2023-04-17T11:43:27.626Z,15.03
2023-04-17T11:44:27.539Z,14.97
2023-04-17T11:45:27.467Z,15.07
2023-04-17T11:46:27.529Z,15.17
2023-04-17T11:47:27.358Z,15.15
2023-04-17T11:48:27.272Z,15.27
2023-04-17T11:49:27.244Z,15.21
2023-04-17T11:50:27.126Z,15.35
2023-04-17T11:51:27.175Z,15.31
2023-04-17T11:52:27.010Z,15.35
2023-04-17T11:53:26.941Z,15.40
2023-04-17T11:54:26.857Z,15.37
2023-04-17T11:55:26.797Z,15.40
2023-04-17T11:56:26.794Z,15.42
2023-04-17T11:57:26.658Z,15.46
2023-04-17T11:58:28.871Z,15.49
2023-04-17T11:59:26.503Z,15.43
2023-04-17T12:00:26.471Z,15.31
2023-04-17T12:01:26.564Z,15.47
2023-04-17T12:02:26.544Z,15.40
2023-04-17T12:03:26.549Z,15.37
2023-04-17T12:04:26.378Z,15.43
2023-04-17T12:05:26.155Z,15.46
2023-04-17T12:06:26.338Z,15.61
2023-04-17T12:07:25.985Z,15.65
2023-04-17T12:08:25.879Z,15.62
2023-04-17T12:09:25.837Z,15.54
2023-04-17T12:10:25.741Z,15.44
2023-04-17T12:11:25.729Z,15.39
2023-04-17T12:12:26.635Z,15.37
2023-04-17T12:13:25.569Z,15.14
2023-04-17T12:14:26.444Z,15.04
2023-04-17T12:15:25.430Z,14.96
2023-04-17T12:16:25.619Z,14.81
2023-04-17T12:17:25.397Z,14.78
2023-04-17T12:18:25.209Z,14.73
2023-04-17T12:19:25.190Z,14.79
2023-04-17T12:20:26.766Z,14.69
2023-04-17T12:21:25.053Z,14.65
2023-04-17T12:22:25.028Z,14.59
2023-04-17T12:23:24.909Z,14.53
2023-04-17T12:24:25.076Z,14.43
2023-04-17T12:25:24.789Z,14.47
2023-04-17T12:26:24.728Z,14.62
2023-04-17T12:27:24.717Z,14.73
2023-04-17T12:28:24.613Z,14.86
2023-04-17T12:29:42.314Z,15.00
2023-04-17T12:30:25.468Z,15.06
2023-04-17T12:31:24.438Z,15.14
2023-04-17T12:32:24.438Z,15.14
2023-04-17T12:33:24.310Z,15.22
2023-04-17T12:34:25.953Z,15.21
2023-04-17T12:35:24.235Z,15.29
2023-04-17T12:36:24.149Z,15.44
2023-04-17T12:37:24.106Z,15.62
2023-04-17T12:38:23.969Z,15.70
2023-04-17T12:39:23.917Z,15.64
2023-04-17T12:40:24.665Z,15.68
2023-04-17T12:41:23.781Z,15.65
2023-04-17T12:42:23.707Z,15.59
2023-04-17T12:43:23.643Z,15.57
2023-04-17T12:44:23.615Z,15.49
2023-04-17T12:45:23.595Z,15.43
2023-04-17T12:46:23.490Z,15.31
2023-04-17T12:47:23.425Z,15.19
2023-04-17T12:48:23.307Z,15.17
2023-04-17T12:49:23.256Z,15.10
2023-04-17T12:50:23.235Z,15.03
2023-04-17T12:51:23.126Z,14.99
2023-04-17T12:52:23.066Z,14.92
2023-04-17T12:53:23.006Z,14.81
2023-04-17T12:54:22.925Z,14.66
2023-04-17T12:55:22.929Z,14.70
2023-04-17T12:56:22.792Z,14.77
2023-04-17T12:57:22.743Z,14.60
2023-04-17T12:58:22.685Z,14.69
2023-04-17T12:59:22.642Z,14.54
2023-04-17T13:00:22.651Z,14.47
2023-04-17T13:01:22.550Z,14.41
2023-04-17T13:02:22.608Z,14.44
2023-04-17T13:03:22.738Z,14.44
2023-04-17T13:04:22.492Z,14.51
2023-04-17T13:05:22.298Z,14.63
2023-04-17T13:06:22.224Z,14.72
2023-04-17T13:07:22.161Z,14.84